Latest Weather Observations for Camden

IDN60801

Issued at 10:32 pm EST Sunday 30 April 2017 (issued every 30 minutes, with the page automatically refreshed every 10 minutes)

About weather observations | Map of weather stations | Latest weather observations for NSW | Other Formats
Station Details ID: 068192 Name: CAMDEN AIRPORT AWS Lat: -34.04 Lon: 150.69 Height: 73.9 m
Data from the previous 72 hours. | See also: Recent months at Camden
Date/Time
EST
Temp
°C
App
Temp
°C
Dew
Point
°C
Rel
Hum
%
Delta-T
°C
Wind Press
QNH
hPa
Press
MSL
hPa
Rain since
9am
mm
Dir  Spd
km/h
Gust
km/h
Spd
kts
Gust
kts
30/10:30pm 12.5 13.2 12.2 98 0.2 CALM 0 0 0 0 1021.5 1021.4 0.0
30/10:00pm 12.0 12.5 11.7 98 0.2 CALM 0 0 0 0 1021.6 1021.5 0.0
30/09:30pm 11.3 11.4 10.0 92 0.7 CALM 0 0 0 0 1021.7 1021.6 0.0
30/09:00pm 12.7 13.3 11.9 95 0.4 CALM 0 0 0 0 1021.8 1021.7 0.0
30/08:30pm 12.9 13.4 11.6 92 0.7 CALM 0 0 0 0 1021.8 1021.7 0.0
30/08:00pm 13.2 13.7 11.6 90 0.9 CALM 0 0 0 0 1021.7 1021.6 0.0
30/07:30pm 13.9 14.5 11.8 87 1.1 CALM 0 0 0 0 1021.7 1021.6 0.0
30/07:00pm 14.9 15.4 11.7 81 1.7 CALM 0 0 0 0 1021.5 1021.4 0.0
30/06:30pm 16.0 16.5 11.6 75 2.4 CALM 0 0 0 0 1021.4 1021.3 0.0
30/06:00pm 17.0 16.2 11.7 71 2.9 E 7 9 4 5 1021.1 1021.0 0.0
30/05:30pm 18.2 16.6 11.5 65 3.7 E 11 17 6 9 1020.8 1020.7 0.0
30/05:00pm 19.4 18.2 11.7 61 4.3 ENE 9 11 5 6 1020.6 1020.5 0.0
30/04:30pm 19.8 18.7 11.8 60 4.4 E 9 13 5 7 1020.5 1020.4 0.0
30/04:00pm 20.1 19.0 10.8 55 5.1 NE 7 9 4 5 1020.4 1020.2 0.0
30/03:30pm 20.5 18.8 10.0 51 5.7 NNE 9 13 5 7 1020.5 1020.4 0.0
30/03:00pm 22.4 20.9 10.5 47 6.5 N 9 15 5 8 1020.6 1020.5 0.0
30/02:30pm 21.8 20.1 9.7 46 6.5 N 9 13 5 7 1020.7 1020.6 0.0
30/02:00pm 21.5 19.8 10.0 48 6.2 N 9 13 5 7 1020.8 1020.7 0.0
30/01:30pm 21.6 19.7 10.4 49 6.1 N 11 13 6 7 1020.9 1020.8 0.0
30/01:00pm 22.0 21.0 10.2 47 6.4 NNW 6 11 3 6 1021.1 1021.0 0.0
30/12:30pm 20.6 20.4 8.9 47 6.2 CALM 0 0 0 0 1021.5 1021.4 0.0
30/12:00pm 20.4 18.8 8.7 47 6.1 SE 7 9 4 5 1021.9 1021.8 0.0
30/11:30am 21.5 20.6 11.2 52 5.7 NNW 7 11 4 6 1022.2 1022.1 0.0
30/11:00am 20.4 20.1 11.3 56 5.0 SSW 4 9 2 5 1022.5 1022.4 0.0
30/10:30am 20.3 20.5 12.0 59 4.6 ESE 2 7 1 4 1022.7 1022.6 0.0
30/10:00am 18.8 18.2 11.6 63 4.0 WNW 6 11 3 6 1023.0 1022.9 0.0
30/09:30am 17.9 16.6 11.2 65 3.6 W 9 13 5 7 1023.2 1023.1 0.0
30/09:00am 16.8 15.6 11.7 72 2.8 W 9 11 5 6 1023.3 1023.2 0.0
30/08:30am 14.8 15.2 11.4 80 1.8 CALM 0 0 0 0 1023.4 1023.3 0.0
30/08:00am 13.8 14.3 11.5 86 1.2 CALM 0 0 0 0 1023.5 1023.4 0.0
30/07:30am 12.9 13.3 11.3 90 0.8 CALM 0 0 0 0 1023.3 1023.2 0.0
30/07:00am 12.3 12.7 11.2 93 0.6 CALM 0 0 0 0 1023.0 1022.9 0.0
30/06:30am 11.8 12.0 10.7 93 0.6 CALM 0 0 0 0 1022.7 1022.6 0.0
30/06:00am 11.7 11.9 10.6 93 0.6 CALM 0 0 0 0 1022.7 1022.6 0.0
30/05:30am 11.3 10.4 10.5 95 0.4 NNW 6 7 3 4 1022.6 1022.5 0.0
30/05:00am 10.8 10.3 10.6 99 0.1 N 4 6 2 3 1022.5 1022.4 0.0
30/04:30am 10.3 10.4 10.0 98 0.2 CALM 0 0 0 0 1022.3 1022.2 0.0
30/04:00am 10.1 9.7 9.8 98 0.2 SSE 2 7 1 4 1022.1 1022.0 0.0
30/03:30am 9.5 9.0 9.4 99 0.0 SW 2 7 1 4 1021.9 1021.8 0.0
30/03:23am 9.5 9.0 9.4 99 0.0 S 2 7 1 4 1021.8 1021.7 0.0
30/03:08am 9.4 9.3 9.3 99 0.0 CALM 0 0 0 0 1021.9 1021.8 0.0
30/03:00am 9.2 9.0 8.9 98 0.1 CALM 0 0 0 0 1021.9 1021.8 0.0
30/02:30am 9.3 9.0 8.5 95 0.4 CALM 0 0 0 0 1021.8 1021.7 0.0
30/02:00am 10.1 7.7 10.0 99 0.1 SE 13 15 7 8 1022.0 1021.9 0.0
30/01:30am 10.3 9.1 9.7 96 0.3 NNE 6 7 3 4 1021.8 1021.7 0.0
30/01:00am 10.2 9.0 9.4 95 0.4 N 6 9 3 5 1022.1 1022.0 0.0
30/12:30am 11.0 11.2 10.4 96 0.3 CALM 0 0 0 0 1022.1 1022.0 0.0
30/12:00am 11.4 11.7 10.9 97 0.3 CALM 0 0 0 0 1022.3 1022.2 0.0
 
Date/Time
EST
Temp
°C
App
Temp
°C
Dew
Point
°C
Rel
Hum
%
Delta-T
°C
Wind Press
QNH
hPa
Press
MSL
hPa
Rain since
9am
mm
Dir  Spd
km/h
Gust
km/h
Spd
kts
Gust
kts
29/11:30pm 11.2 11.4 10.6 96 0.3 CALM 0 0 0 0 1022.2 1022.1 0.0
29/11:00pm 10.8 10.9 10.2 96 0.3 CALM 0 0 0 0 1022.1 1022.0 0.0
29/10:30pm 10.6 10.6 9.8 95 0.4 CALM 0 0 0 0 1022.0 1021.9 0.0
29/10:00pm 10.5 10.3 8.9 90 0.8 CALM 0 0 0 0 1022.0 1021.9 0.0
29/09:30pm 11.7 11.9 10.4 92 0.7 CALM 0 0 0 0 1022.0 1021.9 0.0
29/09:00pm 11.7 11.8 10.3 91 0.7 CALM 0 0 0 0 1021.8 1021.7 0.0
29/08:30pm 11.8 11.9 10.2 90 0.8 CALM 0 0 0 0 1021.6 1021.5 0.0
29/08:00pm 12.4 12.5 10.0 85 1.2 CALM 0 0 0 0 1021.4 1021.3 0.0
29/07:30pm 13.0 13.1 10.2 83 1.5 CALM 0 0 0 0 1021.3 1021.2 0.0
29/07:00pm 14.1 13.8 10.1 77 2.1 WSW 2 7 1 4 1021.1 1021.0 0.0
29/06:30pm 15.3 14.8 9.4 68 3.1 S 2 6 1 3 1020.7 1020.6 0.0
29/06:00pm 16.2 15.4 9.6 65 3.4 S 4 7 2 4 1020.3 1020.1 0.0
29/05:30pm 17.3 16.1 9.7 61 4.0 SE 6 9 3 5 1019.7 1019.5 0.0
29/05:00pm 18.6 16.7 9.1 54 5.0 SE 9 13 5 7 1019.2 1019.0 0.0
29/04:30pm 20.8 19.5 9.1 47 6.2 E 6 9 3 5 1018.8 1018.6 0.0
29/04:00pm 22.4 21.8 7.4 38 7.8 CALM 0 6 0 3 1018.4 1018.2 0.0
29/03:30pm 22.4 21.7 7.0 37 8.0 CALM 0 6 0 3 1018.4 1018.2 0.0
29/03:00pm 22.0 20.5 6.7 37 7.8 SSW 4 7 2 4 1018.3 1018.1 0.0
29/02:30pm 21.8 21.0 6.5 37 7.8 CALM 0 6 0 3 1018.3 1018.1 0.0
29/02:00pm 21.4 19.9 6.9 39 7.4 SE 4 9 2 5 1018.3 1018.1 0.0
29/01:30pm 21.2 19.5 8.5 44 6.7 S 7 11 4 6 1018.5 1018.3 0.0
29/01:00pm 20.9 19.0 7.5 42 6.9 WNW 7 11 4 6 1018.8 1018.6 0.0
29/12:30pm 20.2 17.9 7.6 44 6.5 SW 9 15 5 8 1019.4 1019.2 0.0
29/12:00pm 19.9 17.5 7.0 43 6.5 SSW 9 15 5 8 1019.8 1019.6 0.0
29/11:30am 19.3 16.5 7.1 45 6.2 SSW 11 17 6 9 1020.3 1020.1 0.0
29/11:00am 19.1 18.6 9.3 53 5.2 SW 2 11 1 6 1020.6 1020.5 0.0
29/10:30am 17.1 16.0 8.3 56 4.5 WSW 4 9 2 5 1020.8 1020.7 0.0
29/10:00am 15.6 14.9 8.4 62 3.6 WNW 2 7 1 4 1021.0 1020.9 0.0
29/09:30am 14.9 14.4 7.9 63 3.5 CALM 0 0 0 0 1021.1 1021.0 0.0
29/09:00am 12.2 11.9 8.5 78 1.8 CALM 0 0 0 0 1021.3 1021.2 0.0
29/08:30am 10.2 9.7 7.8 85 1.2 CALM 0 0 0 0 1021.1 1021.0 0.0
29/08:00am 7.6 6.9 7.0 96 0.3 CALM 0 0 0 0 1021.1 1021.0 0.0
29/07:30am 6.0 5.1 5.9 99 0.0 CALM 0 0 0 0 1020.8 1020.7 0.0
29/07:18am 5.8 4.8 5.7 99 0.0 CALM 0 0 0 0 1020.8 1020.7 0.0
29/07:00am 4.9 3.7 4.8 99 0.0 CALM 0 0 0 0 1020.7 1020.6 0.0
29/06:30am 4.6 3.4 4.5 99 0.0 CALM 0 0 0 0 1020.6 1020.5 0.0
29/06:00am 4.4 3.1 4.3 99 0.0 CALM 0 0 0 0 1020.5 1020.4 0.0
29/05:36am 4.8 3.6 4.7 99 0.0 CALM 0 0 0 0 1020.5 1020.4 0.0
29/05:30am 5.0 3.9 4.9 99 0.0 CALM 0 0 0 0 1020.4 1020.2 0.0
29/05:00am 4.9 3.7 4.8 99 0.0 CALM 0 0 0 0 1020.4 1020.2 0.0
29/04:49am 5.3 4.2 5.2 99 0.0 CALM 0 0 0 0 1020.4 1020.2 0.0
29/04:30am 5.3 4.2 5.2 99 0.0 CALM 0 0 0 0 1020.2 1020.0 0.0
29/04:06am 5.4 4.3 5.3 99 0.0 CALM 0 0 0 0 1019.9 1019.7 0.0
29/04:00am 5.7 4.7 5.6 99 0.0 CALM 0 0 0 0 1019.9 1019.7 0.0
29/03:54am 5.7 4.7 5.6 99 0.0 CALM 0 0 0 0 1020.0 1019.8 0.0
29/03:30am 5.6 4.6 5.5 99 0.0 CALM 0 0 0 0 1020.0 1019.8 0.0
29/03:24am 5.9 4.9 5.8 99 0.0 CALM 0 0 0 0 1019.9 1019.7 0.0
29/03:06am 6.2 5.3 6.1 99 0.0 CALM 0 0 0 0 1019.9 1019.7 0.0
29/03:00am 6.1 5.2 6.0 99 0.0 CALM 0 0 0 0 1020.0 1019.8 0.0
29/02:49am 5.7 4.7 5.6 99 0.0 CALM 0 0 0 0 1020.0 1019.8 0.0
29/02:30am 5.9 4.9 5.8 99 0.0 CALM 0 2 0 1 1020.2 1020.0 0.0
29/02:00am 6.2 5.3 6.1 99 0.0 CALM 0 0 0 0 1020.5 1020.4 0.0
29/01:58am 6.4 5.6 6.3 99 0.0 CALM 0 0 0 0 1020.5 1020.4 0.0
29/01:30am 7.0 6.3 6.9 99 0.0 CALM 0 0 0 0 1020.7 1020.6 0.0
29/01:15am 6.6 5.8 6.5 99 0.0 CALM 0 0 0 0 1020.9 1020.8 0.0
29/01:02am 6.9 6.1 6.6 98 0.1 CALM 0 0 0 0 1020.9 1020.8 0.0
29/01:00am 6.6 5.8 6.3 98 0.1 CALM 0 0 0 0 1020.9 1020.8 0.0
29/12:33am 7.2 6.5 6.9 98 0.1 CALM 0 0 0 0 1020.9 1020.8 0.0
29/12:30am 7.3 6.6 6.9 97 0.2 CALM 0 0 0 0 1020.9 1020.8 0.0
29/12:00am 7.6 7.0 7.3 98 0.1 CALM 0 0 0 0 1021.0 1020.9 0.0
 
Date/Time
EST
Temp
°C
App
Temp
°C
Dew
Point
°C
Rel
Hum
%
Delta-T
°C
Wind Press
QNH
hPa
Press
MSL
hPa
Rain since
9am
mm
Dir  Spd
km/h
Gust
km/h
Spd
kts
Gust
kts
28/11:30pm 7.8 7.2 7.5 98 0.1 CALM 0 0 0 0 1021.3 1021.2 0.0
28/11:00pm 7.9 6.9 7.5 97 0.2 SSE 2 7 1 4 1021.5 1021.4 0.0
28/10:50pm 8.0 7.4 7.6 97 0.2 CALM 0 0 0 0 1021.5 1021.4 0.0
28/10:32pm 8.3 7.7 7.5 95 0.4 CALM 0 0 0 0 1021.7 1021.6 0.0
28/10:30pm 8.2 7.6 7.3 94 0.4 CALM 0 0 0 0 1021.7 1021.6 0.0
28/10:00pm 8.9 8.6 8.5 97 0.2 CALM 0 0 0 0 1021.8 1021.7 0.0
28/09:30pm 9.0 8.6 8.1 94 0.4 CALM 0 0 0 0 1021.8 1021.7 0.0
28/09:00pm 9.6 9.1 7.7 88 0.9 CALM 0 0 0 0 1021.8 1021.7 0.0
28/08:30pm 9.7 9.2 8.0 89 0.8 CALM 0 0 0 0 1021.6 1021.5 0.0
28/08:00pm 10.9 10.6 8.8 87 1.0 CALM 0 0 0 0 1021.3 1021.2 0.0
28/07:30pm 11.2 10.9 8.6 84 1.3 CALM 0 0 0 0 1021.4 1021.3 0.0
28/07:00pm 11.9 11.5 8.2 78 1.8 CALM 0 0 0 0 1021.2 1021.1 0.0
28/06:30pm 13.1 12.6 7.8 70 2.6 CALM 0 6 0 3 1021.1 1021.0 0.0
28/06:00pm 15.5 13.2 7.3 58 4.1 E 9 11 5 6 1020.7 1020.6 0.0
28/05:30pm 16.7 16.0 6.8 52 4.9 CALM 0 0 0 0 1020.5 1020.4 0.0
28/05:00pm 18.5 17.7 6.4 45 6.0 CALM 0 0 0 0 1020.3 1020.1 0.0
28/04:30pm 19.8 17.9 5.1 38 7.2 W 4 7 2 4 1020.4 1020.2 0.0
28/04:00pm 20.1 18.0 5.7 39 7.1 W 6 9 3 5 1020.4 1020.2 0.0
28/03:30pm 19.9 17.0 4.8 37 7.4 WSW 9 13 5 7 1020.3 1020.1 0.0
28/03:00pm 20.1 17.6 4.6 36 7.5 W 7 13 4 7 1020.3 1020.1 0.0
28/02:30pm 20.0 17.5 4.5 36 7.5 SW 7 17 4 9 1020.4 1020.2 0.0
28/02:00pm 19.9 16.9 4.0 35 7.6 - 9 22 5 12 1020.6 1020.5 0.0
28/01:30pm 19.5 15.5 4.8 38 7.1 NW 15 20 8 11 1020.7 1020.6 0.0
28/01:00pm 19.2 16.5 5.6 41 6.7 W 9 15 5 8 1021.1 1021.0 0.0
28/12:30pm 18.4 15.5 4.6 40 6.6 SSW 9 19 5 10 1021.7 1021.6 0.0
28/12:00pm 17.6 14.2 4.2 41 6.3 WSW 11 17 6 9 1022.1 1022.0 0.0
28/11:30am 17.6 14.4 5.2 44 6.0 S 11 17 6 9 1022.5 1022.4 0.0
28/11:00am 16.9 12.8 4.6 44 5.8 SW 15 24 8 13 1023.0 1022.9 0.0
28/10:30am 16.7 13.5 5.3 47 5.5 SW 11 19 6 10 1023.2 1023.1 0.0
28/10:00am 15.7 12.0 4.7 48 5.2 SW 13 20 7 11 1023.4 1023.3 0.0
28/09:30am 14.7 11.0 4.4 50 4.8 SSW 13 20 7 11 1023.3 1023.2 0.0
28/09:00am 14.0 10.3 4.6 53 4.3 SW 13 19 7 10 1023.3 1023.2 0.0
28/08:30am 12.8 11.9 5.9 63 3.3 CALM 0 0 0 0 1023.0 1022.9 0.0
28/08:00am 10.5 8.1 4.2 65 2.8 SSE 6 7 3 4 1022.9 1022.8 0.0
28/07:30am 9.0 6.5 4.0 71 2.2 S 6 7 3 4 1022.7 1022.6 0.0
28/07:00am 7.3 4.6 2.8 73 1.9 S 6 7 3 4 1022.4 1022.3 0.0
28/06:30am 7.7 5.0 2.6 70 2.1 S 6 6 3 3 1022.0 1021.9 0.0
28/06:00am 8.6 5.9 2.8 67 2.5 SSW 6 9 3 5 1021.7 1021.6 0.0
28/05:30am 8.6 7.1 3.0 68 2.4 CALM 0 0 0 0 1021.5 1021.4 0.0
28/05:00am 8.4 6.9 3.1 69 2.3 CALM 0 0 0 0 1021.4 1021.3 0.0
28/04:30am 7.9 6.4 3.0 71 2.1 CALM 0 6 0 3 1021.1 1021.0 0.0
28/04:00am 8.4 6.2 3.5 71 2.1 WSW 4 7 2 4 1020.9 1020.8 0.0
28/03:30am 8.0 5.5 3.8 75 1.8 WSW 6 9 3 5 1020.7 1020.6 0.0
28/03:00am 8.5 7.2 3.9 73 2.0 CALM 0 6 0 3 1020.7 1020.6 0.0
28/02:30am 8.8 6.3 4.0 72 2.1 WSW 6 6 3 3 1020.7 1020.6 0.0
28/02:00am 9.2 7.1 4.0 70 2.3 WSW 4 6 2 3 1020.7 1020.6 0.0
28/01:30am 9.9 6.9 4.3 68 2.5 SW 9 13 5 7 1020.7 1020.6 0.0
28/01:00am 9.8 6.5 4.4 69 2.4 SW 11 11 6 6 1020.7 1020.6 0.0
28/12:30am 10.2 7.7 5.0 70 2.4 SW 7 9 4 5 1020.6 1020.5 0.0
28/12:00am 10.4 7.3 5.4 71 2.3 SW 11 13 6 7 1020.4 1020.2 0.0
 
Date/Time
EST
Temp
°C
App
Temp
°C
Dew
Point
°C
Rel
Hum
%
Delta-T
°C
Wind Press
QNH
hPa
Press
MSL
hPa
Rain since
9am
mm
Dir  Spd
km/h
Gust
km/h
Spd
kts
Gust
kts
27/11:30pm 10.3 8.0 5.7 73 2.1 SSW 7 9 4 5 1020.2 1020.0 0.0
27/11:00pm 10.5 8.3 6.1 74 2.0 S 7 11 4 6 1020.0 1019.8 0.0

Other Formats:

Comma delimited format used in spreadsheet applications
http://www.bom.gov.au/fwo/IDN60801/IDN60801.94755.axf

JavaScript Object Notation format (JSON) in row-major order
http://www.bom.gov.au/fwo/IDN60801/IDN60801.94755.json